createdAt,value
2023-04-25T00:02:04.303Z,100.00
2023-04-25T00:04:31.353Z,100.00
2023-04-25T00:07:02.382Z,100.00
2023-04-25T00:09:29.147Z,100.00
2023-04-25T00:11:55.866Z,100.00
2023-04-25T00:14:23.829Z,100.00
2023-04-25T00:16:52.656Z,100.00
2023-04-25T00:19:19.260Z,100.00
2023-04-25T00:21:47.110Z,100.00
2023-04-25T00:24:14.743Z,100.00
2023-04-25T00:26:41.324Z,100.00
2023-04-25T00:29:07.991Z,100.00
2023-04-25T00:31:34.683Z,100.00
2023-04-25T00:34:01.323Z,100.00
2023-04-25T00:36:28.540Z,100.00
2023-04-25T00:38:55.988Z,100.00
2023-04-25T00:41:22.755Z,100.00
2023-04-25T00:43:52.135Z,100.00
2023-04-25T00:46:19.007Z,100.00
2023-04-25T00:48:45.605Z,100.00
2023-04-25T00:51:20.010Z,100.00
2023-04-25T00:53:48.418Z,100.00
2023-04-25T00:56:15.441Z,100.00
2023-04-25T00:58:43.583Z,100.00
2023-04-25T01:01:11.719Z,100.00
2023-04-25T01:03:43.869Z,100.00
2023-04-25T01:06:11.607Z,100.00
2023-04-25T01:08:39.694Z,100.00
2023-04-25T01:11:07.409Z,100.00
2023-04-25T01:13:35.640Z,100.00
2023-04-25T01:16:03.553Z,100.00
2023-04-25T01:18:30.279Z,100.00
2023-04-25T01:21:07.438Z,100.00
2023-04-25T01:23:36.753Z,100.00
2023-04-25T01:26:04.908Z,100.00
2023-04-25T01:28:32.203Z,100.00
2023-04-25T01:30:58.941Z,100.00
2023-04-25T01:33:26.018Z,100.00
2023-04-25T01:35:52.935Z,100.00
2023-04-25T01:38:20.525Z,100.00
2023-04-25T01:40:50.971Z,100.00
2023-04-25T01:43:19.805Z,100.00
2023-04-25T01:45:46.940Z,100.00
2023-04-25T01:48:15.030Z,100.00
2023-04-25T01:50:45.282Z,100.00
2023-04-25T01:53:14.436Z,100.00
2023-04-25T01:55:43.046Z,100.00
2023-04-25T01:58:14.213Z,100.00
2023-04-25T02:00:56.829Z,100.00
2023-04-25T02:03:26.986Z,100.00
2023-04-25T02:05:54.596Z,100.00
2023-04-25T02:08:21.602Z,100.00
2023-04-25T02:10:48.268Z,100.00
2023-04-25T02:13:18.219Z,100.00
2023-04-25T02:15:50.922Z,100.00
2023-04-25T02:18:22.216Z,100.00
2023-04-25T02:20:48.992Z,100.00
2023-04-25T02:23:20.085Z,100.00
2023-04-25T02:25:46.729Z,100.00
2023-04-25T02:28:14.337Z,100.00
2023-04-25T02:30:40.962Z,100.00
2023-04-25T02:33:07.652Z,100.00
2023-04-25T02:35:36.359Z,100.00
2023-04-25T02:38:04.923Z,100.00
2023-04-25T02:40:33.417Z,100.00
2023-04-25T02:43:01.126Z,100.00
2023-04-25T02:45:27.746Z,100.00
2023-04-25T02:47:54.391Z,100.00
2023-04-25T02:50:21.164Z,100.00
2023-04-25T02:52:47.868Z,100.00
2023-04-25T02:55:18.883Z,100.00
2023-04-25T02:57:46.338Z,100.00
2023-04-25T03:00:19.613Z,100.00
2023-04-25T03:02:46.532Z,100.00
2023-04-25T03:05:13.314Z,100.00
2023-04-25T03:07:40.483Z,100.00
2023-04-25T03:10:08.244Z,100.00
2023-04-25T03:12:36.135Z,100.00
2023-04-25T03:15:04.987Z,100.00
2023-04-25T03:17:31.736Z,100.00
2023-04-25T03:19:59.032Z,100.00
2023-04-25T03:22:26.235Z,100.00
2023-04-25T03:24:53.981Z,100.00
2023-04-25T03:27:21.035Z,100.00
2023-04-25T03:29:47.712Z,100.00
2023-04-25T03:32:14.370Z,100.00
2023-04-25T03:34:41.082Z,100.00
2023-04-25T03:37:07.827Z,100.00
2023-04-25T03:39:39.354Z,100.00
2023-04-25T03:42:07.031Z,100.00
2023-04-25T03:44:34.112Z,100.00
2023-04-25T03:47:01.522Z,100.00
2023-04-25T03:49:28.288Z,100.00
2023-04-25T03:51:58.732Z,100.00
2023-04-25T03:54:25.554Z,100.00
2023-04-25T03:57:16.482Z,100.00
2023-04-25T03:59:43.711Z,100.00
2023-04-25T04:02:12.351Z,100.00
2023-04-25T04:04:40.438Z,100.00
2023-04-25T04:07:07.456Z,100.00
2023-04-25T04:09:36.867Z,100.00
2023-04-25T04:12:08.091Z,100.00
2023-04-25T04:14:36.247Z,100.00
2023-04-25T04:17:03.161Z,100.00
2023-04-25T04:19:30.414Z,100.00
2023-04-25T04:22:10.980Z,100.00
2023-04-25T04:24:39.058Z,100.00
2023-04-25T04:27:07.736Z,100.00
2023-04-25T04:29:37.612Z,100.00
2023-04-25T04:32:14.696Z,100.00
2023-04-25T04:34:42.160Z,100.00
2023-04-25T04:37:09.193Z,100.00
2023-04-25T04:39:36.849Z,100.00
2023-04-25T04:42:30.186Z,100.00
2023-04-25T04:45:26.182Z,100.00
2023-04-25T04:48:07.001Z,100.00
2023-04-25T04:50:36.585Z,100.00
2023-04-25T04:53:21.832Z,100.00
2023-04-25T04:56:15.540Z,100.00
2023-04-25T04:58:51.725Z,100.00
2023-04-25T05:01:41.586Z,100.00
2023-04-25T05:04:21.068Z,100.00
2023-04-25T05:07:05.800Z,100.00
2023-04-25T05:09:32.353Z,100.00
2023-04-25T05:12:10.229Z,100.00
2023-04-25T05:14:36.799Z,100.00
2023-04-25T05:17:09.514Z,100.00
2023-04-25T05:19:55.240Z,100.00
2023-04-25T05:22:34.398Z,100.00
2023-04-25T05:25:13.944Z,100.00
2023-04-25T05:27:49.606Z,100.00
2023-04-25T05:30:36.210Z,100.00
2023-04-25T05:33:10.175Z,100.00
2023-04-25T05:35:36.981Z,100.00
2023-04-25T05:38:03.603Z,100.00
2023-04-25T05:40:52.962Z,100.00
2023-04-25T05:43:48.079Z,100.00
2023-04-25T05:46:35.379Z,100.00
2023-04-25T05:49:12.987Z,100.00
2023-04-25T05:51:56.706Z,100.00
2023-04-25T05:54:52.716Z,100.00
2023-04-25T05:57:24.981Z,100.00
2023-04-25T05:59:53.112Z,100.00
2023-04-25T06:02:22.343Z,100.00
2023-04-25T06:04:52.297Z,100.00
2023-04-25T06:07:22.078Z,100.00
2023-04-25T06:09:48.915Z,100.00
2023-04-25T06:12:15.862Z,100.00
2023-04-25T06:14:42.599Z,100.00
2023-04-25T06:17:09.463Z,100.00
2023-04-25T06:19:39.170Z,100.00
2023-04-25T06:22:06.112Z,100.00
2023-04-25T06:24:33.997Z,100.00
2023-04-25T06:27:03.656Z,100.00
2023-04-25T06:29:30.301Z,100.00
2023-04-25T06:31:58.268Z,100.00
2023-04-25T06:34:25.120Z,100.00
2023-04-25T06:36:51.765Z,100.00
2023-04-25T06:39:21.074Z,100.00
2023-04-25T06:41:49.392Z,100.00
2023-04-25T06:44:36.960Z,100.00
2023-04-25T06:47:07.419Z,100.00
2023-04-25T06:49:34.219Z,100.00
2023-04-25T06:52:01.737Z,100.00
2023-04-25T06:54:30.406Z,100.00
2023-04-25T06:57:04.404Z,100.00
2023-04-25T06:59:33.797Z,100.00
2023-04-25T07:02:01.593Z,100.00
2023-04-25T07:04:28.451Z,100.00
2023-04-25T07:06:57.362Z,100.00
2023-04-25T07:09:34.853Z,100.00
2023-04-25T07:12:02.639Z,94.43
2023-04-25T07:14:30.947Z,87.37
2023-04-25T07:16:58.355Z,94.56
2023-04-25T07:19:27.616Z,92.67
2023-04-25T07:21:57.456Z,88.17
2023-04-25T07:24:24.158Z,88.11
2023-04-25T07:26:52.243Z,87.21
2023-04-25T07:29:29.319Z,95.94
2023-04-25T07:31:59.157Z,77.92
2023-04-25T07:34:25.908Z,72.60
2023-04-25T07:36:53.549Z,69.53
2023-04-25T07:39:21.472Z,71.83
2023-04-25T07:41:48.327Z,70.00
2023-04-25T07:44:20.912Z,71.54
2023-04-25T07:46:47.606Z,73.95
2023-04-25T07:49:15.710Z,79.63
2023-04-25T07:51:44.492Z,76.90
2023-04-25T07:54:15.627Z,81.05
2023-04-25T07:56:52.635Z,76.37
2023-04-25T07:59:42.183Z,78.47
2023-04-25T08:02:08.741Z,75.09
2023-04-25T08:04:36.028Z,70.54
2023-04-25T08:07:05.037Z,69.96
2023-04-25T08:09:39.336Z,75.69
2023-04-25T08:12:10.752Z,77.42
2023-04-25T08:14:38.153Z,76.17
2023-04-25T08:17:06.121Z,72.68
2023-04-25T08:19:39.069Z,70.19
2023-04-25T08:22:06.929Z,64.18
2023-04-25T08:24:43.818Z,57.59
2023-04-25T08:27:12.026Z,56.67
2023-04-25T08:29:38.678Z,57.61
2023-04-25T08:32:05.971Z,58.42
2023-04-25T08:34:34.558Z,58.36
2023-04-25T08:37:05.391Z,59.35
2023-04-25T08:39:40.707Z,60.12
2023-04-25T08:42:22.692Z,56.61
2023-04-25T08:44:51.056Z,56.31
2023-04-25T08:47:22.585Z,56.92
2023-04-25T08:49:54.757Z,58.37
2023-04-25T08:52:28.535Z,59.22
2023-04-25T08:54:56.358Z,59.22
2023-04-25T08:57:24.296Z,58.19
2023-04-25T08:59:53.680Z,58.56
2023-04-25T09:02:21.834Z,58.73
2023-04-25T09:04:50.772Z,56.00
2023-04-25T09:07:19.809Z,54.26
2023-04-25T09:09:46.601Z,51.54
2023-04-25T09:12:20.066Z,51.05
2023-04-25T09:15:10.364Z,48.64
2023-04-25T09:18:04.466Z,49.96
2023-04-25T09:20:59.562Z,49.36
2023-04-25T09:34:21.710Z,53.04
2023-04-25T09:38:06.822Z,53.42
2023-04-25T09:44:34.608Z,50.94
2023-04-25T09:55:28.796Z,43.98
2023-04-25T09:59:11.143Z,42.90
2023-04-25T10:06:40.500Z,43.40
2023-04-25T11:27:58.794Z,37.69
2023-04-25T11:30:27.185Z,39.33
2023-04-25T11:32:54.538Z,41.15
2023-04-25T11:35:24.013Z,42.27
2023-04-25T11:37:51.182Z,44.21
2023-04-25T11:40:18.925Z,43.59
2023-04-25T11:42:47.827Z,44.61
2023-04-25T11:45:15.604Z,45.80
2023-04-25T11:47:42.401Z,46.61
2023-04-25T11:50:09.748Z,46.28
2023-04-25T11:52:44.682Z,43.55
2023-04-25T11:55:19.451Z,40.98
2023-04-25T11:57:49.668Z,38.19
2023-04-25T12:00:19.434Z,36.67
2023-04-25T12:02:53.522Z,38.42
2023-04-25T12:05:32.113Z,41.09
2023-04-25T12:08:16.290Z,41.11
2023-04-25T12:10:44.719Z,41.40
2023-04-25T12:13:22.191Z,39.40
2023-04-25T12:15:48.982Z,36.96
2023-04-25T12:18:15.653Z,36.70
2023-04-25T12:20:42.683Z,35.84
2023-04-25T12:23:09.450Z,36.33
2023-04-25T12:25:44.392Z,38.22
2023-04-25T12:28:21.141Z,40.61
2023-04-25T12:30:58.864Z,40.91
2023-04-25T12:33:27.053Z,39.75
2023-04-25T12:35:55.045Z,37.68
2023-04-25T12:38:26.574Z,36.90
2023-04-25T12:40:54.301Z,37.23
2023-04-25T12:43:22.272Z,39.06
2023-04-25T12:45:56.146Z,41.68
2023-04-25T12:48:23.353Z,43.99
2023-04-25T12:50:51.551Z,45.39
2023-04-25T12:53:19.814Z,48.14
2023-04-25T12:55:49.397Z,49.60
2023-04-25T12:58:20.901Z,51.19
2023-04-25T13:00:47.713Z,50.88
2023-04-25T13:03:14.514Z,51.15
2023-04-25T13:05:42.029Z,48.73
2023-04-25T13:08:08.956Z,45.99
2023-04-25T13:10:36.936Z,44.21
2023-04-25T13:13:03.615Z,43.27
2023-04-25T13:15:30.354Z,42.84
2023-04-25T13:17:57.069Z,40.58
2023-04-25T13:20:23.998Z,40.48
2023-04-25T13:22:50.787Z,38.66
2023-04-25T13:25:17.496Z,37.23
2023-04-25T13:27:45.241Z,35.22
2023-04-25T13:30:12.417Z,34.66
2023-04-25T13:32:39.490Z,33.89
2023-04-25T13:35:10.508Z,33.80
2023-04-25T13:37:37.787Z,33.63
2023-04-25T13:40:10.744Z,32.33
2023-04-25T13:42:38.338Z,31.26
2023-04-25T13:45:05.409Z,32.23
2023-04-25T13:47:32.015Z,32.28
2023-04-25T13:49:58.589Z,32.69
2023-04-25T13:52:25.398Z,34.91
2023-04-25T13:54:52.168Z,37.44
2023-04-25T13:57:19.350Z,39.68
2023-04-25T13:59:46.978Z,40.31
2023-04-25T14:02:13.773Z,38.45
2023-04-25T14:04:40.388Z,36.29
2023-04-25T14:07:07.048Z,35.17
2023-04-25T14:09:33.684Z,35.21
2023-04-25T14:12:00.459Z,32.33
2023-04-25T14:14:27.072Z,31.89
2023-04-25T14:16:55.087Z,30.98
2023-04-25T14:19:22.547Z,31.00
2023-04-25T14:21:49.146Z,31.95
2023-04-25T14:24:16.788Z,31.85
2023-04-25T14:26:44.098Z,33.49
2023-04-25T14:29:12.783Z,33.58
2023-04-25T14:31:41.301Z,34.52
2023-04-25T14:34:09.109Z,33.50
2023-04-25T14:36:37.302Z,32.33
2023-04-25T14:39:06.128Z,32.08
2023-04-25T14:41:33.234Z,31.32
2023-04-25T14:43:59.813Z,31.03
2023-04-25T14:46:27.041Z,31.92
2023-04-25T14:48:54.241Z,29.95
2023-04-25T14:51:21.128Z,29.65
2023-04-25T14:53:47.850Z,30.02
2023-04-25T14:56:14.528Z,30.23
2023-04-25T14:58:41.600Z,32.50
2023-04-25T15:01:09.231Z,34.02
2023-04-25T15:03:36.299Z,35.71
2023-04-25T15:06:03.055Z,38.36
2023-04-25T15:08:29.562Z,40.63
2023-04-25T15:10:56.136Z,40.45
2023-04-25T15:13:22.953Z,41.50
2023-04-25T15:15:52.190Z,42.32
2023-04-25T15:18:24.517Z,43.40
2023-04-25T15:20:54.378Z,43.49
2023-04-25T15:23:22.351Z,43.38
2023-04-25T15:25:51.449Z,42.40
2023-04-25T15:28:18.016Z,40.27
2023-04-25T15:30:45.668Z,41.27
2023-04-25T15:33:12.246Z,43.09
2023-04-25T15:35:38.778Z,44.54
2023-04-25T15:38:05.592Z,45.23
2023-04-25T15:40:32.241Z,43.92
2023-04-25T15:42:59.551Z,44.56
2023-04-25T15:45:26.856Z,45.92
2023-04-25T15:47:55.709Z,45.96
2023-04-25T15:50:23.367Z,47.01
2023-04-25T15:52:50.930Z,47.26
2023-04-25T15:55:19.548Z,46.88
2023-04-25T15:57:46.360Z,48.35
2023-04-25T16:00:15.088Z,47.84
2023-04-25T16:02:43.198Z,49.58
2023-04-25T16:05:11.477Z,49.01
2023-04-25T16:07:39.549Z,50.45
2023-04-25T16:10:06.542Z,48.21
2023-04-25T16:12:33.182Z,49.12
2023-04-25T16:14:59.866Z,49.08
2023-04-25T16:17:29.435Z,49.45
2023-04-25T16:19:56.879Z,49.53
2023-04-25T16:22:23.595Z,49.23
2023-04-25T16:24:50.576Z,49.72
2023-04-25T16:27:17.296Z,50.32
2023-04-25T16:29:43.866Z,51.04
2023-04-25T16:32:10.969Z,51.47
2023-04-25T16:34:37.507Z,51.81
2023-04-25T16:37:04.519Z,51.55
2023-04-25T16:39:31.110Z,52.39
2023-04-25T16:41:57.615Z,52.97
2023-04-25T16:44:24.161Z,52.71
2023-04-25T16:46:50.773Z,52.19
2023-04-25T16:49:17.364Z,51.17
2023-04-25T16:51:44.032Z,51.71
2023-04-25T16:54:10.635Z,52.84
2023-04-25T16:56:37.290Z,53.60
2023-04-25T16:59:03.855Z,53.64
2023-04-25T17:01:31.187Z,55.21
2023-04-25T17:03:57.973Z,55.06
2023-04-25T17:06:24.848Z,56.14
2023-04-25T17:08:51.805Z,56.56
2023-04-25T17:11:20.068Z,57.84
2023-04-25T17:13:46.739Z,57.22
2023-04-25T17:16:16.477Z,58.26
2023-04-25T17:18:43.837Z,58.94
2023-04-25T17:21:10.590Z,56.97
2023-04-25T17:23:37.190Z,56.75
2023-04-25T17:26:03.785Z,57.03
2023-04-25T17:28:30.404Z,57.92
2023-04-25T17:30:57.412Z,57.73
2023-04-25T17:33:26.946Z,56.25
2023-04-25T17:35:54.308Z,57.12
2023-04-25T17:38:20.945Z,57.04
2023-04-25T17:40:47.829Z,56.67
2023-04-25T17:43:14.377Z,56.87
2023-04-25T17:45:40.994Z,58.48
2023-04-25T17:48:07.617Z,59.06
2023-04-25T17:50:34.251Z,58.31
2023-04-25T17:53:05.149Z,59.23
2023-04-25T17:55:31.786Z,61.46
2023-04-25T17:57:58.324Z,62.84
2023-04-25T18:00:24.915Z,64.51
2023-04-25T18:02:52.136Z,64.89
2023-04-25T18:05:19.105Z,65.66
2023-04-25T18:07:45.999Z,65.82
2023-04-25T18:10:12.606Z,66.31
2023-04-25T18:12:39.148Z,64.53
2023-04-25T18:15:06.885Z,63.93
2023-04-25T18:17:39.931Z,64.67
2023-04-25T18:20:15.083Z,64.90
2023-04-25T18:22:43.298Z,66.70
2023-04-25T18:25:11.145Z,70.55
2023-04-25T18:27:38.787Z,73.31
2023-04-25T18:30:08.753Z,78.12
2023-04-25T18:32:35.478Z,82.48
2023-04-25T18:35:02.274Z,84.38
2023-04-25T18:37:28.920Z,88.16
2023-04-25T18:39:55.734Z,92.48
2023-04-25T18:42:22.430Z,95.65
2023-04-25T18:44:49.021Z,98.51
2023-04-25T18:47:15.599Z,100.00
2023-04-25T18:49:42.496Z,100.00
2023-04-25T18:52:10.701Z,100.00
2023-04-25T18:54:37.878Z,100.00
2023-04-25T18:57:05.982Z,100.00
2023-04-25T18:59:33.423Z,100.00
2023-04-25T19:02:04.417Z,100.00
2023-04-25T19:04:32.267Z,100.00
2023-04-25T19:06:59.625Z,100.00
2023-04-25T19:09:26.355Z,100.00
2023-04-25T19:11:53.088Z,100.00
2023-04-25T19:14:19.604Z,100.00
2023-04-25T19:16:46.369Z,100.00
2023-04-25T19:19:12.969Z,100.00
2023-04-25T19:21:39.729Z,100.00
2023-04-25T19:24:07.075Z,100.00
2023-04-25T19:26:34.098Z,100.00
2023-04-25T19:29:09.264Z,100.00
2023-04-25T19:31:37.677Z,100.00
2023-04-25T19:34:05.851Z,100.00
2023-04-25T19:36:33.100Z,100.00
2023-04-25T19:39:03.762Z,100.00
2023-04-25T19:41:32.084Z,100.00
2023-04-25T19:44:04.691Z,100.00
2023-04-25T19:46:34.208Z,100.00
2023-04-25T19:49:01.478Z,100.00
2023-04-25T19:51:28.623Z,100.00
2023-04-25T19:53:55.612Z,100.00
2023-04-25T19:56:23.514Z,100.00
2023-04-25T19:58:51.053Z,100.00
2023-04-25T20:01:18.129Z,100.00
2023-04-25T20:03:45.299Z,100.00
2023-04-25T20:06:11.922Z,100.00
2023-04-25T20:08:38.468Z,100.00
2023-04-25T20:11:05.356Z,100.00
2023-04-25T20:13:32.721Z,100.00
2023-04-25T20:16:01.329Z,100.00
2023-04-25T20:18:29.633Z,100.00
2023-04-25T20:20:56.554Z,100.00
2023-04-25T20:23:23.119Z,100.00
2023-04-25T20:25:50.440Z,100.00
2023-04-25T20:28:17.410Z,100.00
2023-04-25T20:30:44.562Z,100.00
2023-04-25T20:33:11.173Z,100.00
2023-04-25T20:35:37.789Z,100.00
2023-04-25T20:38:04.332Z,100.00
2023-04-25T20:40:31.110Z,100.00
2023-04-25T20:42:57.742Z,100.00
2023-04-25T20:45:26.111Z,100.00
2023-04-25T20:47:53.210Z,100.00
2023-04-25T20:50:20.088Z,100.00
2023-04-25T20:52:46.591Z,100.00
2023-04-25T20:55:13.439Z,100.00
2023-04-25T20:57:40.009Z,100.00
2023-04-25T21:00:18.357Z,100.00
2023-04-25T21:02:46.614Z,100.00
2023-04-25T21:05:13.629Z,100.00
2023-04-25T21:07:40.222Z,100.00
2023-04-25T21:10:07.188Z,100.00
2023-04-25T21:12:33.830Z,100.00
2023-04-25T21:15:00.686Z,100.00
2023-04-25T21:17:27.594Z,100.00
2023-04-25T21:19:54.295Z,100.00
2023-04-25T21:22:21.519Z,100.00
2023-04-25T21:24:50.665Z,100.00
2023-04-25T21:27:20.523Z,100.00
2023-04-25T21:29:47.211Z,100.00
2023-04-25T21:32:17.484Z,100.00
2023-04-25T21:34:44.249Z,100.00
2023-04-25T21:37:11.041Z,100.00
2023-04-25T21:39:37.773Z,100.00
2023-04-25T21:42:08.817Z,100.00
2023-04-25T21:44:35.943Z,100.00
2023-04-25T21:47:04.446Z,100.00
2023-04-25T21:49:32.815Z,100.00
2023-04-25T21:51:59.923Z,100.00
2023-04-25T21:54:27.072Z,100.00
2023-04-25T21:56:53.857Z,100.00
2023-04-25T21:59:23.194Z,100.00
2023-04-25T22:01:49.984Z,100.00
2023-04-25T22:04:17.138Z,100.00
2023-04-25T22:06:43.961Z,100.00
2023-04-25T22:09:10.564Z,100.00
2023-04-25T22:11:37.127Z,100.00
2023-04-25T22:14:03.726Z,100.00
2023-04-25T22:16:30.384Z,100.00
2023-04-25T22:18:56.962Z,100.00
2023-04-25T22:21:24.376Z,100.00
2023-04-25T22:23:52.686Z,100.00
2023-04-25T22:26:20.398Z,100.00
2023-04-25T22:28:47.200Z,100.00
2023-04-25T22:31:14.329Z,100.00
2023-04-25T22:33:41.367Z,100.00
2023-04-25T22:36:08.909Z,100.00
2023-04-25T22:38:35.825Z,100.00
2023-04-25T22:41:02.340Z,100.00
2023-04-25T22:43:29.376Z,100.00
2023-04-25T22:45:56.824Z,100.00
2023-04-25T22:48:23.404Z,100.00
2023-04-25T22:50:51.056Z,100.00
2023-04-25T22:53:17.641Z,100.00
2023-04-25T22:55:44.342Z,100.00
2023-04-25T22:58:10.948Z,100.00
2023-04-25T23:00:37.632Z,100.00
2023-04-25T23:03:04.923Z,100.00
2023-04-25T23:05:32.827Z,100.00
2023-04-25T23:07:59.944Z,100.00
2023-04-25T23:10:28.042Z,100.00
2023-04-25T23:12:57.332Z,100.00
2023-04-25T23:15:26.392Z,100.00
2023-04-25T23:17:53.393Z,100.00
2023-04-25T23:20:21.033Z,100.00
2023-04-25T23:22:47.880Z,100.00
2023-04-25T23:25:14.907Z,100.00
2023-04-25T23:27:42.362Z,100.00
2023-04-25T23:30:10.401Z,100.00
2023-04-25T23:32:37.903Z,100.00
2023-04-25T23:35:05.457Z,100.00
2023-04-25T23:37:38.612Z,100.00
2023-04-25T23:40:12.749Z,100.00
2023-04-25T23:42:41.106Z,100.00
2023-04-25T23:45:08.883Z,100.00
2023-04-25T23:47:36.130Z,100.00
2023-04-25T23:50:03.604Z,100.00
2023-04-25T23:52:30.297Z,100.00
2023-04-25T23:54:56.889Z,100.00
2023-04-25T23:57:23.459Z,100.00
2023-04-25T23:59:50.154Z,100.00
